Malmstrom Air Force Base, MT

11:02 AM MDT on August 28, 2014 (GMT -0600)
Great Falls International | Change Station
CLOSE
Current Station
Airport
Location: Great Falls,
Elevation: 3658 ft
Nearby Weather Stations

Elev 3658 ft 47.47 °N, 111.38 °W | Updated 9 minutes ago

Clear
Clear
81 °F
Feels Like 81 °F
N
15
Wind Variable Wind from WSW
Gusts 22 mph

Today
High -- | Low -- °F
--% Chance of Precip.
Yesterday
High -- | Low -- °F
Precip. -- in
6:38 AM 8:12 PM
Waxing Crescent, 9% visible
Pressure 29.91 in
Visibility 10.0 miles
Clouds Clear
Dew Point 44 °F
Humidity 27%
Rainfall 0.00 in
Snow Depth Not available.
UV 6 out of 12
Pollen 8.90 out of 12
Air Quality Not available.
Flu Activity Not available.
METAR KGTF 281653Z 24013G19KT 10SM CLR 27/07 A3000 RMK AO2 SLP128 T02720067

More Conditions Fewer Conditions

Pressure 29.91 in
Visibility 10.0 miles
Clouds Clear
Dew Point 44 °F
Humidity 27%
Rainfall 0.00 in
Snow Depth Not available.
UV 6 out of 12
Pollen 8.90 out of 12
Air Quality Not available.
Flu Activity Not available.
METAR KGTF 281653Z 24013G19KT 10SM CLR 27/07 A3000 RMK AO2 SLP128 T02720067

More Conditions Fewer Conditions

10-Day Weather Forecast

Almanac

Astronomy

Aug. 28, 2014 Rise Set
Actual Time 6:38 AM MDT 8:12 PM MDT
Civil Twilight 6:05 AM MDT 8:44 PM MDT
Nautical Twilight 5:26 AM MDT 9:23 PM MDT
Astronomical Twilight 4:43 AM MDT 10:06 PM MDT
Moon 9:49 AM MDT 9:21 PM MDT
Length of Visible Light 14h 38m
Length of Day
13h 34m
Tomorrow will be 3m 16s shorter.
Waxing Crescent, 9% of the Moon is Illuminated
Today
Waxing Crescent
Sep 2
First Quarter
Sep 8
Full
Sep 15
Last Quarter
Sep 24
New

Today's Extremes

State Highs State Lows

Community

WunderPhotos

Upload Photos

1,748,015 photos uploaded!

Nearby

Snow Depth

Station Depth Elevation
Stringer Creek 0 in 6550 ft
Onion Park 0 in 7410 ft
Spur Park 0 in 8100 ft
Wood Creek 1 in 5960 ft
Nevada Ridge 0 in 7020 ft

Earthquake Activity

City Distance Mag. Time & Date
No recent earthquake activity has been reported nearby.
Minimum magnitude displayed is 2.5.

Coastal Water Temperatures

Place Temperature
No Stations Reporting

Nearby Weather Stations